Time;durP1;ratioP1;P1;durP2;ratioP2;P2;SDS_P1;SDS_P2;PMS_P1;PMS_P2;Temp;Humidity;BMP_temperature;BMP_pressure;BME280_temperature;BME280_humidity;BME280_pressure;Samples;Min_cycle;Max_cycle;Signal;HPM_P1;HPM_P2
2022/10/19 00:01:21;;;;;;;32.42;29.70;;;18.40;99.90;;;;;;4991159;28;20399;-83
2022/10/19 00:03:52;;;;;;;32.35;29.83;;;18.50;99.90;;;;;;5009493;28;20030;-84
2022/10/19 00:06:26;;;;;;;29.45;27.13;;;18.40;99.90;;;;;;4978950;28;20029;-84
2022/10/19 00:09:02;;;;;;;30.15;28.05;;;18.40;99.90;;;;;;5010910;28;20118;-84
2022/10/19 00:11:28;;;;;;;31.70;29.30;;;18.40;99.90;;;;;;5010575;28;20042;-85
2022/10/19 00:13:54;;;;;;;28.67;26.15;;;18.40;99.90;;;;;;4994450;28;20502;-84
2022/10/19 00:16:21;;;;;;;29.45;26.80;;;18.40;99.90;;;;;;5027238;28;20030;-83
2022/10/19 00:18:47;;;;;;;30.15;27.90;;;18.40;99.90;;;;;;5010001;28;20509;-84
2022/10/19 00:21:16;;;;;;;30.25;27.75;;;18.40;99.90;;;;;;5011375;28;20032;-85
2022/10/19 00:23:42;;;;;;;31.50;29.30;;;18.30;99.90;;;;;;4994566;28;20041;-82
2022/10/19 00:26:08;;;;;;;31.63;29.42;;;18.40;99.90;;;;;;5012472;28;20025;-83
2022/10/19 00:28:34;;;;;;;31.63;28.88;;;18.40;99.90;;;;;;5010467;28;20045;-84
2022/10/19 00:31:05;;;;;;;31.65;28.80;;;18.30;99.90;;;;;;5007896;28;20034;-83
2022/10/19 00:33:31;;;;;;;30.58;28.42;;;18.20;99.90;;;;;;4995250;28;20068;-84
2022/10/19 00:35:57;;;;;;;28.60;26.27;;;18.20;99.90;;;;;;5010731;28;20033;-84
2022/10/19 00:38:23;;;;;;;32.90;30.42;;;18.10;99.90;;;;;;5010441;28;20030;-84
2022/10/19 00:40:50;;;;;;;32.15;28.98;;;18.10;99.90;;;;;;5010957;28;20045;-84
2022/10/19 00:43:18;;;;;;;33.05;30.58;;;18.10;99.90;;;;;;4994177;28;20038;-84
2022/10/19 00:45:44;;;;;;;32.38;30.00;;;18.10;99.90;;;;;;4993318;28;20033;-84
2022/10/19 00:48:12;;;;;;;34.60;31.77;;;18.10;99.90;;;;;;4994660;28;20034;-85
2022/10/19 00:50:38;;;;;;;30.30;28.20;;;18.10;99.90;;;;;;4994228;28;20033;-84
2022/10/19 00:53:04;;;;;;;29.08;26.63;;;18.00;99.90;;;;;;5009950;28;20054;-85
2022/10/19 00:55:30;;;;;;;30.50;27.77;;;18.00;99.90;;;;;;5012122;28;20034;-84
2022/10/19 00:57:56;;;;;;;31.52;28.98;;;18.00;99.90;;;;;;5026401;28;20044;-84
2022/10/19 01:00:23;;;;;;;33.65;31.15;;;18.10;99.90;;;;;;5010468;28;20046;-84
2022/10/19 01:02:49;;;;;;;28.48;26.30;;;18.10;99.90;;;;;;4993998;28;20034;-84
2022/10/19 01:05:15;;;;;;;32.58;30.25;;;18.00;99.90;;;;;;4990107;28;20042;-84
2022/10/19 01:07:41;;;;;;;30.23;27.88;;;17.90;99.90;;;;;;5023101;28;20026;-84
2022/10/19 01:10:08;;;;;;;31.42;28.92;;;17.90;99.90;;;;;;5013294;28;20046;-84
2022/10/19 01:12:51;;;;;;;30.52;28.15;;;17.90;99.90;;;;;;5030426;28;20052;-84
2022/10/19 01:15:28;;;;;;;30.40;28.00;;;17.90;99.90;;;;;;5011969;28;20034;-85
2022/10/19 01:18:23;;;;;;;29.33;27.02;;;17.90;99.90;;;;;;5011393;28;20034;-84
2022/10/19 01:21:13;;;;;;;28.85;26.40;;;17.90;99.90;;;;;;4977355;28;20042;-84
2022/10/19 01:23:42;;;;;;;27.95;25.40;;;17.90;99.90;;;;;;4995485;28;20042;-84
2022/10/19 01:26:26;;;;;;;29.40;27.15;;;17.80;99.90;;;;;;5010809;28;20057;-85
2022/10/19 01:29:17;;;;;;;29.42;27.25;;;17.80;99.90;;;;;;4996233;28;20034;-84
2022/10/19 01:31:47;;;;;;;30.17;27.80;;;17.90;99.90;;;;;;4994257;28;20037;-84
2022/10/19 01:34:19;;;;;;;31.45;28.80;;;17.80;99.90;;;;;;5021870;28;20026;-84
2022/10/19 01:36:54;;;;;;;32.05;28.60;;;17.90;99.90;;;;;;5010402;28;20140;-82
2022/10/19 01:39:27;;;;;;;29.73;27.45;;;17.80;99.90;;;;;;5013622;28;20500;-84
2022/10/19 01:42:11;;;;;;;29.23;26.80;;;17.80;99.90;;;;;;5014162;28;20041;-84
2022/10/19 01:45:03;;;;;;;29.75;27.27;;;17.80;99.90;;;;;;4999086;28;20026;-84
2022/10/19 01:47:45;;;;;;;27.52;25.38;;;17.80;99.90;;;;;;5008326;28;20034;-84
2022/10/19 01:50:30;;;;;;;28.23;25.80;;;17.80;99.90;;;;;;4998879;28;20467;-84
2022/10/19 01:52:56;;;;;;;27.35;24.85;;;17.80;99.90;;;;;;5028084;28;20049;-84
2022/10/19 01:55:22;;;;;;;28.10;25.52;;;17.80;99.90;;;;;;5006700;28;20045;-84
2022/10/19 01:57:52;;;;;;;30.88;27.98;;;17.70;99.90;;;;;;5021464;28;20042;-84
2022/10/19 02:00:18;;;;;;;29.33;26.77;;;17.70;99.90;;;;;;5029396;28;20038;-85
2022/10/19 02:02:46;;;;;;;28.33;26.17;;;17.70;99.90;;;;;;5012216;28;20294;-84
2022/10/19 02:05:12;;;;;;;28.38;26.05;;;17.70;99.90;;;;;;5007184;28;20041;-85
2022/10/19 02:07:40;;;;;;;29.52;26.55;;;17.70;99.90;;;;;;4974338;28;20057;-83
2022/10/19 02:10:06;;;;;;;26.73;24.80;;;17.70;99.90;;;;;;4992094;28;20042;-83
2022/10/19 02:12:32;;;;;;;28.33;25.65;;;17.70;99.90;;;;;;5008252;28;20417;-83
2022/10/19 02:15:02;;;;;;;31.63;28.98;;;17.80;99.90;;;;;;4960681;28;20038;-82
2022/10/19 02:17:33;;;;;;;30.00;27.38;;;17.90;99.90;;;;;;4970012;28;20510;-83
2022/10/19 02:19:59;;;;;;;31.63;29.10;;;17.90;99.90;;;;;;4991850;28;20459;-83
2022/10/19 02:22:25;;;;;;;32.17;29.77;;;17.90;99.90;;;;;;4976359;28;20026;-83
2022/10/19 02:24:51;;;;;;;32.80;29.77;;;17.70;99.90;;;;;;4964916;28;20034;-83
2022/10/19 02:27:17;;;;;;;33.67;30.38;;;17.70;99.90;;;;;;4972201;28;20046;-83
2022/10/19 02:29:43;;;;;;;32.72;30.27;;;17.70;99.90;;;;;;4972778;28;20487;-82
2022/10/19 02:32:10;;;;;;;30.85;28.40;;;17.70;99.90;;;;;;4969632;28;20054;-82
2022/10/19 02:34:36;;;;;;;31.77;28.88;;;17.60;99.90;;;;;;4992334;28;20415;-83
2022/10/19 02:37:03;;;;;;;31.60;28.73;;;17.60;99.90;;;;;;4953115;28;20158;-82
2022/10/19 02:39:29;;;;;;;30.15;27.92;;;17.70;99.90;;;;;;4993302;28;20479;-83
2022/10/19 02:42:11;;;;;;;32.33;29.88;;;17.70;99.90;;;;;;4961045;28;20053;-84
2022/10/19 02:44:55;;;;;;;31.40;28.98;;;17.70;99.90;;;;;;4976731;28;20049;-84
2022/10/19 02:47:34;;;;;;;29.48;27.42;;;17.60;99.90;;;;;;4957045;28;20043;-84
2022/10/19 02:50:03;;;;;;;31.17;28.77;;;17.60;99.90;;;;;;4987845;28;20506;-84
2022/10/19 02:52:29;;;;;;;29.40;27.00;;;17.50;99.90;;;;;;4989779;28;20047;-84
2022/10/19 02:54:55;;;;;;;27.75;25.42;;;17.40;99.90;;;;;;4984505;28;20384;-84
2022/10/19 02:57:23;;;;;;;27.88;25.25;;;17.40;99.90;;;;;;4993273;28;20034;-84
2022/10/19 02:59:49;;;;;;;27.98;25.67;;;17.40;99.90;;;;;;4992049;28;20026;-84
2022/10/19 03:02:15;;;;;;;28.88;26.25;;;17.40;99.90;;;;;;4975628;28;20034;-84
2022/10/19 03:04:43;;;;;;;27.15;24.85;;;17.40;99.90;;;;;;4976718;28;20042;-84
2022/10/19 03:07:10;;;;;;;27.35;25.02;;;17.40;99.90;;;;;;4956707;28;20039;-83
2022/10/19 03:09:36;;;;;;;28.65;26.25;;;17.40;99.90;;;;;;4974455;28;20031;-84
2022/10/19 03:12:03;;;;;;;28.60;26.13;;;17.40;99.90;;;;;;4980406;28;20065;-84
2022/10/19 03:14:29;;;;;;;27.25;24.55;;;17.40;99.90;;;;;;4960476;28;20403;-84
2022/10/19 03:16:55;;;;;;;27.63;24.92;;;17.30;99.90;;;;;;5007913;28;20041;-84
2022/10/19 03:19:21;;;;;;;30.83;28.42;;;17.30;99.90;;;;;;5012194;28;20038;-84
2022/10/19 03:21:47;;;;;;;29.27;26.58;;;17.20;99.90;;;;;;5012182;28;20057;-84
2022/10/19 03:24:13;;;;;;;29.50;27.00;;;17.20;99.90;;;;;;4992352;28;20039;-84
2022/10/19 03:26:39;;;;;;;30.98;28.13;;;17.20;99.90;;;;;;4988974;28;20043;-85
2022/10/19 03:29:05;;;;;;;30.70;27.95;;;17.20;99.90;;;;;;4991678;28;20053;-85
2022/10/19 03:31:32;;;;;;;26.83;24.30;;;17.20;99.90;;;;;;4965079;28;20038;-86
2022/10/19 03:33:58;;;;;;;29.15;26.83;;;17.10;99.90;;;;;;5033527;28;20034;-87
2022/10/19 03:36:28;;;;;;;31.33;28.77;;;17.10;99.90;;;;;;5011308;28;20049;-85
2022/10/19 03:38:56;;;;;;;29.88;27.13;;;17.10;99.90;;;;;;5028570;28;20525;-84
2022/10/19 03:41:23;;;;;;;28.33;26.05;;;17.10;99.90;;;;;;5028124;28;20042;-84
2022/10/19 03:43:49;;;;;;;28.92;26.45;;;17.10;99.90;;;;;;5006693;28;20483;-85
2022/10/19 03:46:15;;;;;;;29.45;26.98;;;17.00;99.90;;;;;;4992762;28;20049;-86
2022/10/19 03:48:42;;;;;;;29.85;27.10;;;17.00;99.90;;;;;;5028679;28;20339;-86
2022/10/19 03:51:16;;;;;;;30.40;27.80;;;17.00;99.90;;;;;;5008116;28;20072;-86
2022/10/19 03:53:42;;;;;;;28.80;26.30;;;16.90;99.90;;;;;;5011239;28;20042;-88
2022/10/19 03:56:12;;;;;;;27.10;24.88;;;16.90;99.90;;;;;;5028298;28;20022;-88
2022/10/19 03:58:39;;;;;;;25.25;23.23;;;16.90;99.90;;;;;;5024713;28;20042;-86
2022/10/19 04:01:07;;;;;;;30.80;27.98;;;16.90;99.90;;;;;;5010496;28;20038;-83
2022/10/19 04:03:33;;;;;;;29.58;27.13;;;16.90;99.90;;;;;;5004761;28;20045;-83
2022/10/19 04:06:03;;;;;;;31.85;29.05;;;16.90;99.90;;;;;;5011261;28;20026;-85
2022/10/19 04:08:29;;;;;;;31.10;28.83;;;16.90;99.90;;;;;;5010960;28;20034;-84
2022/10/19 04:11:00;;;;;;;29.95;26.95;;;16.90;99.90;;;;;;5026812;28;20037;-84
2022/10/19 04:13:26;;;;;;;24.45;22.33;;;16.90;99.90;;;;;;5027615;28;20398;-85
2022/10/19 04:15:52;;;;;;;26.38;24.10;;;16.80;99.90;;;;;;5012508;28;20025;-84
2022/10/19 04:18:18;;;;;;;26.80;24.55;;;16.80;99.90;;;;;;5028090;28;20042;-82
2022/10/19 04:20:44;;;;;;;26.00;24.10;;;16.80;99.90;;;;;;5027346;28;20049;-82
2022/10/19 04:23:10;;;;;;;32.97;29.85;;;16.80;99.90;;;;;;5027655;28;20041;-85
2022/10/19 04:25:36;;;;;;;27.73;25.42;;;16.80;99.90;;;;;;5010467;28;20049;-84
2022/10/19 04:28:03;;;;;;;30.70;28.25;;;16.70;99.90;;;;;;5027848;28;20033;-85
2022/10/19 04:30:29;;;;;;;29.13;26.48;;;16.80;99.90;;;;;;5027504;28;20041;-85
2022/10/19 04:32:55;;;;;;;31.25;28.50;;;16.80;99.90;;;;;;5026565;28;20050;-85
2022/10/19 04:35:21;;;;;;;28.58;25.83;;;16.70;99.90;;;;;;5011057;28;20022;-85
2022/10/19 04:37:47;;;;;;;25.42;23.15;;;16.80;99.90;;;;;;4994086;28;20042;-85
2022/10/19 04:40:13;;;;;;;31.00;28.48;;;16.70;99.90;;;;;;4967196;28;20045;-85
2022/10/19 04:42:40;;;;;;;25.40;23.23;;;16.70;99.90;;;;;;4991753;28;20038;-84
2022/10/19 04:45:06;;;;;;;24.80;22.70;;;16.70;99.90;;;;;;4995683;28;20398;-85
2022/10/19 04:47:32;;;;;;;27.60;25.50;;;16.70;99.90;;;;;;4998715;28;20029;-85
2022/10/19 04:49:58;;;;;;;25.02;22.92;;;16.70;99.90;;;;;;5015170;28;20037;-85
2022/10/19 04:52:24;;;;;;;32.72;29.52;;;16.70;99.90;;;;;;4998956;28;20046;-85
2022/10/19 04:54:50;;;;;;;24.60;22.02;;;16.70;99.90;;;;;;4999191;28;20037;-84
2022/10/19 04:57:16;;;;;;;28.48;26.02;;;16.70;99.90;;;;;;4982202;28;20049;-84
2022/10/19 04:59:42;;;;;;;27.85;25.38;;;16.70;99.90;;;;;;5015041;28;20034;-85
2022/10/19 05:02:09;;;;;;;27.58;25.33;;;16.70;99.90;;;;;;4997208;28;20049;-85
2022/10/19 05:04:35;;;;;;;27.45;25.27;;;16.60;99.90;;;;;;4982023;28;20054;-85
2022/10/19 05:07:01;;;;;;;27.50;25.13;;;16.60;99.90;;;;;;5014916;28;20029;-85
2022/10/19 05:09:27;;;;;;;24.85;22.73;;;16.70;99.90;;;;;;4981690;28;20045;-85
2022/10/19 05:11:53;;;;;;;24.88;22.73;;;16.70;99.90;;;;;;5031631;28;20455;-85
2022/10/19 05:14:19;;;;;;;26.00;23.80;;;16.60;99.90;;;;;;5014214;28;20053;-85
2022/10/19 05:16:45;;;;;;;25.98;23.80;;;16.60;99.90;;;;;;4998380;28;20045;-82
2022/10/19 05:19:14;;;;;;;26.33;24.38;;;16.60;99.90;;;;;;4978688;28;20496;-83
2022/10/19 05:21:40;;;;;;;26.92;24.80;;;16.50;99.90;;;;;;4979087;28;20041;-83
2022/10/19 05:24:06;;;;;;;26.02;23.80;;;16.60;99.90;;;;;;4978829;28;20030;-83
2022/10/19 05:26:32;;;;;;;25.88;23.58;;;16.60;99.90;;;;;;4995207;28;20046;-83
2022/10/19 05:29:01;;;;;;;27.23;24.60;;;16.60;99.90;;;;;;5011291;28;20054;-83
2022/10/19 05:31:28;;;;;;;25.80;23.63;;;16.50;99.90;;;;;;4994067;28;20045;-85
2022/10/19 05:33:57;;;;;;;26.02;24.05;;;16.50;99.90;;;;;;4978258;28;20038;-85
2022/10/19 05:36:35;;;;;;;27.73;25.30;;;16.50;99.90;;;;;;4995011;28;20046;-85
2022/10/19 05:39:03;;;;;;;28.33;25.67;;;16.50;99.90;;;;;;4978941;28;20038;-85
2022/10/19 05:41:30;;;;;;;28.50;25.45;;;16.50;99.90;;;;;;5009275;28;20034;-85
2022/10/19 05:43:57;;;;;;;27.27;24.55;;;16.50;99.90;;;;;;4994140;28;20045;-85
2022/10/19 05:46:23;;;;;;;26.17;23.85;;;16.50;99.90;;;;;;4977521;28;20407;-86
2022/10/19 05:48:49;;;;;;;27.67;24.85;;;16.50;99.90;;;;;;4994044;28;20026;-85
2022/10/19 05:51:17;;;;;;;26.15;23.63;;;16.40;99.90;;;;;;4993825;28;20403;-83
2022/10/19 05:53:43;;;;;;;27.45;25.33;;;16.40;99.90;;;;;;4975235;28;20051;-86
2022/10/19 05:56:16;;;;;;;29.88;23.77;;;16.40;99.90;;;;;;4978124;28;20424;-85
2022/10/19 05:58:42;;;;;;;27.38;24.80;;;16.40;99.90;;;;;;4990775;28;20046;-84
2022/10/19 06:01:08;;;;;;;24.88;22.75;;;16.40;99.90;;;;;;4990548;28;20042;-85
2022/10/19 06:03:34;;;;;;;24.50;22.52;;;16.40;99.90;;;;;;5007462;28;20026;-85
2022/10/19 06:06:04;;;;;;;27.30;23.25;;;16.50;99.90;;;;;;4977662;28;20062;-85
2022/10/19 06:08:30;;;;;;;26.20;23.95;;;16.50;99.90;;;;;;4968904;28;20038;-87
2022/10/19 06:11:13;;;;;;;25.58;23.67;;;16.50;99.90;;;;;;4961483;28;20407;-84
2022/10/19 06:13:40;;;;;;;27.52;24.85;;;16.60;99.90;;;;;;5010310;28;20419;-85
2022/10/19 06:16:07;;;;;;;26.75;24.27;;;16.50;99.90;;;;;;4982806;28;20395;-84
2022/10/19 06:18:33;;;;;;;26.60;24.60;;;16.50;99.90;;;;;;4977126;28;20061;-83
2022/10/19 06:21:07;;;;;;;25.10;22.65;;;16.60;99.90;;;;;;5010324;28;20022;-85
2022/10/19 06:23:33;;;;;;;27.08;24.55;;;16.50;99.90;;;;;;4991844;28;20049;-85
2022/10/19 06:26:07;;;;;;;28.60;26.17;;;16.50;99.90;;;;;;5009833;28;20041;-86
2022/10/19 06:28:34;;;;;;;28.02;25.63;;;16.40;99.90;;;;;;4993665;28;20345;-88
2022/10/19 06:31:00;;;;;;;27.75;25.30;;;16.40;99.90;;;;;;4994335;28;20030;-89
2022/10/19 06:33:26;;;;;;;25.00;22.50;;;16.40;99.90;;;;;;4969297;28;20050;-94
2022/10/19 06:35:52;;;;;;;25.45;23.00;;;16.40;99.90;;;;;;4999082;28;20042;-93
2022/10/19 06:38:19;;;;;;;24.20;22.42;;;16.40;99.90;;;;;;5001710;28;20067;-92
2022/10/19 06:40:45;;;;;;;26.67;24.67;;;16.40;99.90;;;;;;5006717;28;20038;-92
2022/10/19 06:43:11;;;;;;;27.55;25.23;;;16.40;99.90;;;;;;5000160;28;20038;-90
2022/10/19 06:45:37;;;;;;;23.63;21.63;;;16.30;99.90;;;;;;5005392;28;20056;-93
2022/10/19 06:48:04;;;;;;;25.20;23.15;;;16.40;99.90;;;;;;5008572;28;20030;-90
2022/10/19 06:50:31;;;;;;;26.48;23.58;;;16.40;99.90;;;;;;4986710;28;20042;-93
2022/10/19 06:52:58;;;;;;;26.85;24.40;;;16.30;99.90;;;;;;5001319;28;20050;-91
2022/10/19 06:58:00;;;;;;;25.95;23.63;;;16.40;99.90;;;;;;4988336;28;20046;-92
2022/10/19 07:00:30;;;;;;;27.95;25.67;;;16.40;99.90;;;;;;5005407;23;20049;-91
2022/10/19 07:02:58;;;;;;;27.15;24.58;;;16.40;99.90;;;;;;5016666;28;20057;-92
2022/10/19 07:05:24;;;;;;;29.42;27.30;;;16.40;99.90;;;;;;4999883;28;20039;-92
2022/10/19 07:07:50;;;;;;;32.38;30.35;;;16.40;99.90;;;;;;4990214;28;20038;-89
2022/10/19 07:10:16;;;;;;;32.25;29.58;;;16.40;99.90;;;;;;4997660;28;20030;-89
2022/10/19 07:12:42;;;;;;;27.95;25.60;;;16.40;99.90;;;;;;4995893;28;20031;-87
2022/10/19 07:15:09;;;;;;;27.55;25.08;;;16.40;99.90;;;;;;4995714;28;20053;-93
2022/10/19 07:17:35;;;;;;;26.98;24.70;;;16.50;99.90;;;;;;4987231;28;20023;-91
2022/10/19 07:20:01;;;;;;;27.95;25.80;;;16.50;99.90;;;;;;4996534;28;20042;-92
2022/10/19 07:22:27;;;;;;;27.02;24.70;;;16.70;99.90;;;;;;4988709;28;20042;-91
2022/10/19 07:24:53;;;;;;;34.40;31.60;;;16.70;99.90;;;;;;4957862;28;20034;-92
2022/10/19 07:27:19;;;;;;;35.30;32.55;;;16.80;99.90;;;;;;4972812;28;20046;-88
2022/10/19 07:29:45;;;;;;;32.45;29.85;;;16.90;99.90;;;;;;4956773;28;20042;-89
2022/10/19 07:32:11;;;;;;;36.25;33.25;;;16.90;99.90;;;;;;5007789;28;20053;-86
2022/10/19 07:34:38;;;;;;;34.53;31.83;;;16.80;99.90;;;;;;5010010;28;20054;-87
2022/10/19 07:37:04;;;;;;;32.22;29.70;;;16.80;99.90;;;;;;5006537;28;20049;-87
2022/10/19 07:39:30;;;;;;;37.25;35.05;;;16.90;99.90;;;;;;4974492;28;20042;-84
2022/10/19 07:41:56;;;;;;;35.25;32.90;;;17.00;99.90;;;;;;5008241;28;20448;-83
2022/10/19 07:44:22;;;;;;;26.77;24.75;;;17.10;99.90;;;;;;5008037;28;20030;-83
2022/10/19 07:46:49;;;;;;;24.15;22.35;;;17.10;99.90;;;;;;4975446;28;20515;-83
2022/10/19 07:49:15;;;;;;;24.30;22.27;;;17.10;99.90;;;;;;4991813;28;20034;-83
2022/10/19 07:51:41;;;;;;;22.38;20.48;;;17.10;99.90;;;;;;4992341;28;20038;-84
2022/10/19 07:54:07;;;;;;;19.40;18.23;;;17.20;99.90;;;;;;5008305;28;20050;-84
2022/10/19 07:56:34;;;;;;;22.20;20.42;;;17.10;99.90;;;;;;5008689;28;20046;-84
2022/10/19 07:59:00;;;;;;;27.13;24.30;;;17.20;99.90;;;;;;5008104;28;20042;-84
2022/10/19 08:01:28;;;;;;;27.00;24.52;;;17.20;99.90;;;;;;5004445;28;20050;-84
2022/10/19 08:03:55;;;;;;;27.90;25.83;;;17.20;99.90;;;;;;4988404;28;20043;-83
2022/10/19 08:06:21;;;;;;;30.15;27.42;;;17.20;99.90;;;;;;5004662;28;20046;-84
2022/10/19 08:08:47;;;;;;;33.60;31.17;;;17.20;99.90;;;;;;4988621;28;20054;-83
2022/10/19 08:11:28;;;;;;;32.22;29.92;;;17.20;99.90;;;;;;4988604;28;20562;-84
2022/10/19 08:13:54;;;;;;;35.20;32.53;;;17.30;99.90;;;;;;4988049;28;20051;-83
2022/10/19 08:16:39;;;;;;;26.13;24.02;;;17.40;99.90;;;;;;4971790;28;20031;-84
2022/10/19 08:19:07;;;;;;;27.60;24.88;;;17.50;99.90;;;;;;4988512;28;20039;-84
2022/10/19 08:21:33;;;;;;;26.27;24.30;;;17.60;99.90;;;;;;4968763;28;20044;-85
2022/10/19 08:23:59;;;;;;;23.55;21.58;;;17.70;99.90;;;;;;4969277;28;20040;-84
2022/10/19 08:26:29;;;;;;;27.60;25.42;;;17.80;99.90;;;;;;4976822;28;20027;-85
2022/10/19 08:29:03;;;;;;;26.55;24.85;;;17.90;99.90;;;;;;4988600;28;20035;-84
2022/10/19 08:31:29;;;;;;;29.80;27.30;;;18.00;99.90;;;;;;4999657;28;20484;-84
2022/10/19 08:33:55;;;;;;;28.30;25.83;;;18.10;99.90;;;;;;4991336;28;20053;-84
2022/10/19 08:36:21;;;;;;;27.05;25.30;;;18.10;99.90;;;;;;5007952;28;20034;-84
2022/10/19 08:38:48;;;;;;;27.17;24.83;;;18.10;99.90;;;;;;4991171;28;20046;-83
2022/10/19 08:41:21;;;;;;;28.77;26.60;;;18.10;99.90;;;;;;5007456;28;20034;-84
2022/10/19 08:44:00;;;;;;;26.23;24.33;;;18.20;99.90;;;;;;4991623;28;20403;-84
2022/10/19 08:47:05;;;;;;;27.55;25.80;;;18.20;99.90;;;;;;4990563;28;20041;-84
2022/10/19 08:49:31;;;;;;;29.33;27.50;;;18.30;99.90;;;;;;4992597;28;20392;-84
2022/10/19 08:51:59;;;;;;;28.92;26.75;;;18.40;99.90;;;;;;4991068;28;20038;-84
2022/10/19 08:54:57;;;;;;;27.23;25.38;;;18.50;99.90;;;;;;4991881;28;20518;-84
2022/10/19 08:57:42;;;;;;;27.75;25.58;;;18.60;99.90;;;;;;4990973;28;20042;-84
2022/10/19 09:00:36;;;;;;;26.50;24.17;;;18.70;99.90;;;;;;5007045;28;20372;-83
2022/10/19 09:03:17;;;;;;;24.77;22.92;;;18.70;99.90;;;;;;4992455;28;20415;-83
2022/10/19 09:05:49;;;;;;;;;;;18.70;99.90;;;;;;4992280;28;20023;-83
2022/10/19 09:08:15;;;;;;;24.20;22.23;;;18.70;99.90;;;;;;5007773;28;19906;-85
2022/10/19 09:10:42;;;;;;;28.38;26.08;;;18.70;99.90;;;;;;4991075;28;20042;-85
2022/10/19 09:13:34;;;;;;;25.80;24.15;;;18.70;99.90;;;;;;4991183;28;20026;-85
2022/10/19 09:16:00;;;;;;;28.05;25.55;;;18.70;99.90;;;;;;4990999;28;20407;-85
2022/10/19 09:18:28;;;;;;;35.97;33.20;;;18.70;99.90;;;;;;4992484;28;20036;-86
2022/10/19 09:21:11;;;;;;;37.10;34.47;;;18.70;99.90;;;;;;4974999;28;20045;-85
2022/10/19 09:23:39;;;;;;;31.33;29.40;;;18.80;99.90;;;;;;4992473;28;20041;-85
2022/10/19 09:26:11;;;;;;;24.67;23.08;;;18.80;99.90;;;;;;4991052;28;20046;-85
2022/10/19 09:28:47;;;;;;;28.42;26.58;;;18.80;99.90;;;;;;5007664;28;20034;-85
2022/10/19 09:31:41;;;;;;;29.70;27.23;;;18.80;99.90;;;;;;5026420;28;20042;-85
2022/10/19 09:34:29;;;;;;;25.75;23.63;;;18.80;99.90;;;;;;4982483;28;20039;-85
2022/10/19 09:36:56;;;;;;;27.80;25.73;;;19.00;99.90;;;;;;4975400;28;20046;-85
2022/10/19 09:39:23;;;;;;;29.70;27.42;;;19.00;99.90;;;;;;4974925;28;20023;-85
2022/10/19 09:41:52;;;;;;;23.92;22.02;;;19.10;99.90;;;;;;4975188;28;20022;-85
2022/10/19 09:44:18;;;;;;;25.98;23.75;;;19.20;99.90;;;;;;4975436;28;20468;-85
2022/10/19 09:46:53;;;;;;;24.58;22.75;;;19.30;99.90;;;;;;4974455;28;20046;-85
2022/10/19 09:49:40;;;;;;;29.77;27.52;;;19.30;99.90;;;;;;5006161;28;20026;-85
2022/10/19 09:52:21;;;;;;;27.63;25.67;;;19.30;99.90;;;;;;5006694;28;20038;-85
2022/10/19 09:54:50;;;;;;;26.58;24.17;;;19.30;99.90;;;;;;5007357;28;20046;-86
2022/10/19 09:57:20;;;;;;;25.95;24.08;;;19.40;99.90;;;;;;5007108;28;20043;-86
2022/10/19 09:59:46;;;;;;;25.25;23.42;;;19.40;99.90;;;;;;4963587;28;20042;-86
2022/10/19 10:02:13;;;;;;;24.45;22.38;;;19.40;99.90;;;;;;4987336;28;20034;-85
2022/10/19 10:04:40;;;;;;;25.67;23.38;;;19.50;99.90;;;;;;4988378;28;20031;-83
2022/10/19 10:07:08;;;;;;;24.77;23.00;;;19.50;99.90;;;;;;5011022;28;20031;-86
2022/10/19 10:09:34;;;;;;;31.08;28.98;;;19.60;99.90;;;;;;4992904;28;20018;-85
2022/10/19 10:12:00;;;;;;;27.40;25.58;;;19.70;99.90;;;;;;4990890;28;20041;-85
2022/10/19 10:14:29;;;;;;;27.30;25.45;;;19.80;99.90;;;;;;4975515;28;20050;-85
2022/10/19 10:17:06;;;;;;;22.92;20.92;;;19.90;99.90;;;;;;5004240;28;20035;-87
2022/10/19 10:19:34;;;;;;;22.20;20.52;;;20.00;99.90;;;;;;4986100;28;20111;-86
2022/10/19 10:22:01;;;;;;;22.30;20.52;;;20.10;99.90;;;;;;4978378;28;20038;-88
2022/10/19 10:24:31;;;;;;;25.75;22.63;;;20.10;99.90;;;;;;4989868;28;20031;-88
2022/10/19 10:27:02;;;;;;;26.88;25.05;;;20.20;99.90;;;;;;4973116;28;20380;-86
2022/10/19 10:29:29;;;;;;;;;;;20.40;99.90;;;;;;4983439;28;20043;-86
2022/10/19 10:32:04;;;;;;;29.38;27.42;;;20.40;99.90;;;;;;4990899;28;19914;-87
2022/10/19 10:34:45;;;;;;;25.02;22.92;;;20.50;99.90;;;;;;4980811;28;20055;-88
2022/10/19 10:37:19;;;;;;;39.67;37.00;;;20.70;99.90;;;;;;4973421;28;20038;-85
2022/10/19 10:39:45;;;;;;;31.13;28.90;;;20.70;99.90;;;;;;4988986;28;20042;-85
2022/10/19 10:42:16;;;;;;;26.80;24.90;;;20.80;99.90;;;;;;4972799;28;20046;-85
2022/10/19 10:44:48;;;;;;;33.38;31.02;;;20.80;99.70;;;;;;4971684;28;20391;-88
2022/10/19 10:47:14;;;;;;;36.90;33.85;;;20.90;99.80;;;;;;4963677;28;20038;-88
2022/10/19 10:49:43;;;;;;;37.80;34.97;;;20.90;99.90;;;;;;4939080;29;20050;-88
2022/10/19 10:52:11;;;;;;;39.78;36.97;;;21.00;99.80;;;;;;4938921;29;20047;-88
2022/10/19 10:54:37;;;;;;;37.33;34.80;;;21.10;99.20;;;;;;4954598;29;20046;-88
2022/10/19 10:57:17;;;;;;;40.80;37.67;;;21.20;99.10;;;;;;4968724;28;20399;-87
2022/10/19 10:59:56;;;;;;;37.75;35.03;;;21.20;98.20;;;;;;4973677;28;20027;-86
2022/10/19 11:02:35;;;;;;;39.85;36.85;;;21.30;98.40;;;;;;4972467;28;20046;-87
2022/10/19 11:05:20;;;;;;;33.80;31.17;;;21.40;98.50;;;;;;4973701;28;20027;-84
2022/10/19 11:07:47;;;;;;;32.88;30.77;;;21.40;97.90;;;;;;4971167;28;20033;-88
2022/10/19 11:10:16;;;;;;;33.03;30.60;;;21.50;98.00;;;;;;4987742;28;20404;-93
2022/10/19 11:12:45;;;;;;;38.38;35.85;;;21.50;97.50;;;;;;4973432;28;20031;-89
2022/10/19 11:15:30;;;;;;;33.35;30.83;;;21.60;97.60;;;;;;4985974;28;20396;-90
2022/10/19 11:17:59;;;;;;;37.55;35.35;;;21.70;97.30;;;;;;4989137;28;20472;-89
2022/10/19 11:20:26;;;;;;;29.98;27.83;;;21.80;97.70;;;;;;4990296;28;20393;-89
2022/10/19 11:23:14;;;;;;;32.13;29.25;;;21.90;97.40;;;;;;4992659;28;20026;-90
2022/10/19 11:25:58;;;;;;;33.08;30.45;;;22.00;97.20;;;;;;5009420;28;20053;-92
2022/10/19 11:28:46;;;;;;;32.17;29.95;;;22.00;96.90;;;;;;4989374;28;20361;-91
2022/10/19 11:31:18;;;;;;;34.67;31.73;;;22.00;96.50;;;;;;4993595;28;20035;-89
2022/10/19 11:33:55;;;;;;;32.15;29.60;;;22.10;96.70;;;;;;4991787;28;20026;-88
2022/10/19 11:36:47;;;;;;;32.72;30.58;;;22.20;97.00;;;;;;4991684;28;20034;-89
2022/10/19 11:39:19;;;;;;;34.42;31.75;;;22.30;96.60;;;;;;4993638;28;20376;-92
2022/10/19 11:41:59;;;;;;;35.10;33.00;;;22.40;96.50;;;;;;4999566;28;20475;-89
2022/10/19 11:44:40;;;;;;;33.67;31.42;;;22.40;95.90;;;;;;5007731;28;20375;-89
2022/10/19 11:47:40;;;;;;;34.08;31.73;;;22.50;96.00;;;;;;4990303;28;20050;-88
2022/10/19 11:50:42;;;;;;;32.45;30.05;;;22.60;96.00;;;;;;4988562;28;20515;-88
2022/10/19 11:53:17;;;;;;;34.47;32.25;;;22.70;95.70;;;;;;4961306;28;20039;-88
2022/10/19 11:56:01;;;;;;;37.45;34.92;;;22.70;94.80;;;;;;4971600;28;20531;-88
2022/10/19 11:58:34;;;;;;;34.45;31.73;;;22.80;94.40;;;;;;4971388;28;20046;-88
2022/10/19 12:01:45;;;;;;;35.53;33.08;;;22.80;94.30;;;;;;4939367;28;20047;-89
2022/10/19 12:04:40;;;;;;;33.78;30.90;;;22.90;93.90;;;;;;4912879;29;20059;-89
2022/10/19 12:07:18;;;;;;;33.67;31.02;;;22.90;93.70;;;;;;4893838;29;20049;-86
2022/10/19 12:10:08;;;;;;;50.55;46.75;;;23.10;93.40;;;;;;4886989;29;20041;-88
2022/10/19 12:12:41;;;;;;;44.72;41.25;;;23.10;91.40;;;;;;4862790;29;20041;-88
2022/10/19 12:15:10;;;;;;;41.30;38.60;;;23.10;91.40;;;;;;4859540;29;20045;-88
2022/10/19 12:17:37;;;;;;;40.90;37.55;;;23.10;91.40;;;;;;4892167;29;20503;-88
2022/10/19 12:20:25;;;;;;;43.95;40.85;;;23.20;91.90;;;;;;4859752;29;20051;-86
2022/10/19 12:22:51;;;;;;;43.53;40.28;;;23.30;90.80;;;;;;4876815;29;20084;-89
2022/10/19 12:25:17;;;;;;;41.50;38.75;;;23.30;91.20;;;;;;4878998;29;20478;-87
2022/10/19 12:27:46;;;;;;;44.05;40.92;;;23.30;91.30;;;;;;4878422;29;20430;-88
2022/10/19 12:30:13;;;;;;;41.20;38.15;;;23.20;91.50;;;;;;4880547;29;20052;-88
2022/10/19 12:33:11;;;;;;;48.70;45.60;;;23.30;91.20;;;;;;4862857;29;20509;-88
2022/10/19 12:36:07;;;;;;;48.83;45.38;;;23.30;91.80;;;;;;4859993;29;20053;-88
2022/10/19 12:39:01;;;;;;;51.28;48.38;;;23.30;91.60;;;;;;4860247;29;20052;-88
2022/10/19 12:41:52;;;;;;;47.95;44.50;;;23.40;90.90;;;;;;4888021;29;20044;-87
2022/10/19 12:44:43;;;;;;;52.90;49.65;;;23.40;91.50;;;;;;4954716;28;20043;-87
2022/10/19 12:47:11;;;;;;;49.53;46.30;;;23.40;91.10;;;;;;4971823;28;20492;-87
2022/10/19 12:49:44;;;;;;;44.90;41.90;;;23.50;91.00;;;;;;4955789;28;20491;-87